Time;durP1;ratioP1;P1;durP2;ratioP2;P2;SDS_P1;SDS_P2;PMS_P1;PMS_P2;Temp;Humidity;BMP_temperature;BMP_pressure;BME280_temperature;BME280_humidity;BME280_pressure;Samples;Min_cycle;Max_cycle;Signal;HPM_P1;HPM_P2
2021/04/16 00:00:14;;;;;;;12.18;7.22;;;;;;;;;;5093976;28;20035;-65
2021/04/16 00:02:40;;;;;;;14.05;7.63;;;;;;;;;;5093426;28;20059;-65
2021/04/16 00:05:07;;;;;;;13.27;7.30;;;;;;;;;;5092543;28;20016;-65
2021/04/16 00:07:33;;;;;;;12.20;7.93;;;;;;;;;;5093831;28;20028;-65
2021/04/16 00:10:00;;;;;;;11.65;6.65;;;;;;;;;;5093429;28;20028;-65
2021/04/16 00:12:26;;;;;;;12.65;7.50;;;;;;;;;;5092443;28;20020;-65
2021/04/16 00:14:52;;;;;;;13.18;7.50;;;;;;;;;;5093760;28;20028;-65
2021/04/16 00:17:18;;;;;;;10.57;6.40;;;;;;;;;;5093430;28;20081;-65
2021/04/16 00:19:44;;;;;;;13.27;6.97;;;;;;;;;;5093680;28;20026;-65
2021/04/16 00:22:10;;;;;;;13.27;8.18;;;;;;;;;;5092066;28;20053;-65
2021/04/16 00:24:37;;;;;;;11.98;7.25;;;;;;;;;;5091683;28;20024;-65
2021/04/16 00:27:03;;;;;;;12.63;7.22;;;;;;;;;;5093422;28;20050;-68
2021/04/16 00:29:29;;;;;;;12.30;7.88;;;;;;;;;;5093365;28;20027;-65
2021/04/16 00:31:55;;;;;;;12.23;7.53;;;;;;;;;;5092377;28;20028;-65
2021/04/16 00:34:23;;;;;;;12.95;7.38;;;;;;;;;;5093328;28;20016;-65
2021/04/16 00:36:50;;;;;;;16.20;7.85;;;;;;;;;;5092181;28;20035;-65
2021/04/16 00:39:18;;;;;;;13.20;7.50;;;;;;;;;;5092926;28;20051;-65
2021/04/16 00:41:45;;;;;;;11.18;6.90;;;;;;;;;;5093072;28;20047;-65
2021/04/16 00:44:11;;;;;;;12.70;6.78;;;;;;;;;;5093088;28;20523;-65
2021/04/16 00:46:49;;;;;;;12.20;7.13;;;;;;;;;;5092698;28;20534;-65
2021/04/16 00:49:24;;;;;;;11.25;6.93;;;;;;;;;;5091800;28;20020;-65
2021/04/16 00:51:52;;;;;;;17.35;7.68;;;;;;;;;;5093064;28;20392;-65
2021/04/16 00:54:23;;;;;;;12.02;7.97;;;;;;;;;;5092986;28;20380;-65
2021/04/16 00:56:50;;;;;;;12.45;6.75;;;;;;;;;;5091903;28;20081;-65
2021/04/16 00:59:20;;;;;;;12.18;7.60;;;;;;;;;;5092947;28;20016;-65
2021/04/16 01:01:46;;;;;;;12.98;7.43;;;;;;;;;;5091525;28;20035;-65
2021/04/16 01:04:12;;;;;;;15.85;7.35;;;;;;;;;;5092868;28;20356;-65
2021/04/16 01:06:39;;;;;;;13.57;7.28;;;;;;;;;;5091117;28;20081;-65
2021/04/16 01:09:05;;;;;;;12.27;7.07;;;;;;;;;;5092857;28;20073;-65
2021/04/16 01:11:31;;;;;;;14.45;7.53;;;;;;;;;;5091463;28;20024;-66
2021/04/16 01:13:58;;;;;;;12.05;6.18;;;;;;;;;;5091175;28;20048;-65
2021/04/16 01:16:30;;;;;;;12.73;6.85;;;;;;;;;;5092915;28;20028;-65
2021/04/16 01:18:57;;;;;;;14.90;6.75;;;;;;;;;;5092857;28;20016;-65
2021/04/16 01:21:25;;;;;;;13.73;7.97;;;;;;;;;;5090900;28;20043;-65
2021/04/16 01:23:58;;;;;;;17.38;7.47;;;;;;;;;;5092660;28;20483;-65
2021/04/16 01:26:26;;;;;;;16.10;8.95;;;;;;;;;;5091362;28;20035;-65
2021/04/16 01:28:54;;;;;;;15.13;8.35;;;;;;;;;;5092565;28;20376;-65
2021/04/16 01:31:21;;;;;;;16.63;7.55;;;;;;;;;;5091361;28;20107;-65
2021/04/16 01:33:49;;;;;;;12.77;7.10;;;;;;;;;;5091339;28;20115;-65
2021/04/16 01:36:17;;;;;;;12.77;6.55;;;;;;;;;;5092330;28;20078;-65
2021/04/16 01:38:45;;;;;;;13.20;7.07;;;;;;;;;;5092510;28;20027;-65
2021/04/16 01:41:12;;;;;;;13.35;7.55;;;;;;;;;;5092052;28;20450;-65
2021/04/16 01:43:43;;;;;;;14.35;7.78;;;;;;;;;;5094213;28;20031;-65
2021/04/16 01:46:19;;;;;;;14.43;7.50;;;;;;;;;;5096467;28;20024;-65
2021/04/16 01:48:53;;;;;;;13.05;6.38;;;;;;;;;;5096111;28;20048;-65
2021/04/16 01:51:26;;;;;;;10.10;6.35;;;;;;;;;;5096393;28;20024;-65
2021/04/16 01:53:52;;;;;;;;;;;;;;;;;;5096997;28;20027;-65
2021/04/16 01:56:18;;;;;;;11.95;7.18;;;;;;;;;;5094708;28;19904;-65
2021/04/16 01:58:44;;;;;;;12.63;8.05;;;;;;;;;;5095177;28;20042;-65
2021/04/16 02:01:10;;;;;;;11.27;6.88;;;;;;;;;;5096264;28;20035;-65
2021/04/16 02:03:36;;;;;;;17.40;7.78;;;;;;;;;;5095871;28;20044;-65
2021/04/16 02:06:03;;;;;;;11.93;7.20;;;;;;;;;;5096140;28;20020;-65
2021/04/16 02:08:29;;;;;;;10.50;6.47;;;;;;;;;;5094849;28;20031;-65
2021/04/16 02:10:56;;;;;;;11.68;7.10;;;;;;;;;;5094386;28;20020;-65
2021/04/16 02:13:22;;;;;;;14.98;6.82;;;;;;;;;;5096234;28;20048;-65
2021/04/16 02:15:48;;;;;;;14.77;7.25;;;;;;;;;;5094806;28;20081;-67
2021/04/16 02:18:14;;;;;;;13.77;7.00;;;;;;;;;;5095601;28;20024;-65
2021/04/16 02:20:40;;;;;;;15.00;7.82;;;;;;;;;;5095838;28;20111;-65
2021/04/16 02:23:06;;;;;;;13.27;7.28;;;;;;;;;;5094297;28;20048;-65
2021/04/16 02:25:32;;;;;;;16.98;7.75;;;;;;;;;;5094139;28;20476;-66
2021/04/16 02:27:59;;;;;;;15.20;7.97;;;;;;;;;;5095778;28;20150;-65
2021/04/16 02:30:27;;;;;;;15.70;7.13;;;;;;;;;;5095298;28;20020;-66
2021/04/16 02:32:54;;;;;;;11.20;7.07;;;;;;;;;;5094338;28;20559;-65
2021/04/16 02:35:21;;;;;;;16.00;7.22;;;;;;;;;;5095836;28;20097;-65
2021/04/16 02:37:47;;;;;;;11.18;6.72;;;;;;;;;;5093996;28;20020;-65
2021/04/16 02:40:15;;;;;;;14.25;8.40;;;;;;;;;;5095473;28;20377;-65
2021/04/16 02:42:42;;;;;;;16.85;8.10;;;;;;;;;;5095418;28;20036;-65
2021/04/16 02:45:10;;;;;;;12.35;7.70;;;;;;;;;;5094949;28;20030;-65
2021/04/16 02:47:36;;;;;;;11.70;7.72;;;;;;;;;;5094103;28;20118;-65
2021/04/16 02:50:02;;;;;;;13.57;7.68;;;;;;;;;;5095314;28;20503;-66
2021/04/16 02:52:29;;;;;;;13.23;6.90;;;;;;;;;;5094887;28;20028;-65
2021/04/16 02:54:55;;;;;;;14.05;6.80;;;;;;;;;;5094947;28;20091;-65
2021/04/16 02:57:21;;;;;;;13.55;7.80;;;;;;;;;;5094040;28;20054;-65
2021/04/16 02:59:47;;;;;;;12.88;6.95;;;;;;;;;;5093430;28;20054;-65
2021/04/16 03:02:13;;;;;;;12.23;7.25;;;;;;;;;;5093708;28;20032;-65
2021/04/16 03:04:40;;;;;;;14.68;7.72;;;;;;;;;;5093807;28;20426;-65
2021/04/16 03:07:06;;;;;;;13.30;8.57;;;;;;;;;;5094903;28;20479;-65
2021/04/16 03:09:32;;;;;;;12.32;7.35;;;;;;;;;;5094930;28;20097;-65
2021/04/16 03:11:58;;;;;;;12.52;7.22;;;;;;;;;;5094883;28;20247;-65
2021/04/16 03:14:24;;;;;;;11.95;7.10;;;;;;;;;;5093309;28;20028;-65
2021/04/16 03:16:51;;;;;;;16.33;8.13;;;;;;;;;;5094964;28;20024;-65
2021/04/16 03:19:17;;;;;;;13.15;7.45;;;;;;;;;;5094854;28;20032;-65
2021/04/16 03:21:43;;;;;;;12.88;7.47;;;;;;;;;;5094022;28;20165;-65
2021/04/16 03:24:09;;;;;;;10.95;6.45;;;;;;;;;;5094717;28;20062;-65
2021/04/16 03:26:36;;;;;;;10.75;6.43;;;;;;;;;;5094380;28;20023;-65
2021/04/16 03:29:02;;;;;;;16.08;7.53;;;;;;;;;;5094531;28;20020;-66
2021/04/16 03:31:28;;;;;;;16.17;8.40;;;;;;;;;;5093324;28;20020;-65
2021/04/16 03:33:56;;;;;;;11.50;7.03;;;;;;;;;;5092952;28;20441;-65
2021/04/16 03:36:23;;;;;;;12.52;7.28;;;;;;;;;;5094658;28;20024;-65
2021/04/16 03:38:49;;;;;;;11.00;6.38;;;;;;;;;;5092961;28;20476;-65
2021/04/16 03:41:16;;;;;;;12.15;6.80;;;;;;;;;;5093912;28;20043;-65
2021/04/16 03:43:42;;;;;;;12.43;7.88;;;;;;;;;;5094428;28;20158;-65
2021/04/16 03:46:09;;;;;;;17.77;9.25;;;;;;;;;;5094582;28;20020;-65
2021/04/16 03:48:35;;;;;;;14.00;7.68;;;;;;;;;;5093726;28;20058;-65
2021/04/16 03:51:01;;;;;;;12.85;7.95;;;;;;;;;;5092818;28;20063;-65
2021/04/16 03:53:28;;;;;;;11.75;7.72;;;;;;;;;;5094330;28;20529;-65
2021/04/16 03:55:55;;;;;;;12.57;7.32;;;;;;;;;;5093823;28;20543;-65
2021/04/16 03:58:21;;;;;;;13.07;7.65;;;;;;;;;;5092794;28;20031;-65
2021/04/16 04:00:48;;;;;;;14.48;9.10;;;;;;;;;;5093940;28;20028;-65
2021/04/16 04:03:14;;;;;;;13.00;8.48;;;;;;;;;;5092115;28;20081;-65
2021/04/16 04:05:41;;;;;;;17.38;8.82;;;;;;;;;;5091707;28;20023;-65
2021/04/16 04:08:08;;;;;;;13.07;7.25;;;;;;;;;;5093832;28;20129;-65
2021/04/16 04:10:36;;;;;;;12.15;7.07;;;;;;;;;;5093431;28;20077;-65
2021/04/16 04:13:12;;;;;;;17.48;8.52;;;;;;;;;;5093770;28;20020;-65
2021/04/16 04:15:39;;;;;;;16.98;8.40;;;;;;;;;;5093923;28;20024;-65
2021/04/16 04:18:05;;;;;;;13.77;8.88;;;;;;;;;;5091897;28;20024;-65
2021/04/16 04:20:33;;;;;;;17.40;10.57;;;;;;;;;;5093519;28;20024;-65
2021/04/16 04:23:00;;;;;;;21.77;10.27;;;;;;;;;;5092885;28;20044;-65
2021/04/16 04:25:27;;;;;;;18.92;9.95;;;;;;;;;;5093496;28;20107;-66
2021/04/16 04:27:54;;;;;;;19.77;8.50;;;;;;;;;;5093450;28;20057;-65
2021/04/16 04:30:21;;;;;;;20.80;9.85;;;;;;;;;;5092970;28;20027;-65
2021/04/16 04:32:48;;;;;;;21.83;13.00;;;;;;;;;;5092211;28;20012;-65
2021/04/16 04:35:14;;;;;;;23.13;14.38;;;;;;;;;;5093530;28;20102;-65
2021/04/16 04:37:40;;;;;;;15.32;10.10;;;;;;;;;;5091448;28;20017;-65
2021/04/16 04:40:07;;;;;;;13.70;8.82;;;;;;;;;;5093298;28;20020;-65
2021/04/16 04:42:33;;;;;;;14.70;8.95;;;;;;;;;;5093054;28;20064;-65
2021/04/16 04:45:00;;;;;;;15.75;10.15;;;;;;;;;;5091477;28;20024;-65
2021/04/16 04:47:26;;;;;;;15.90;9.52;;;;;;;;;;5093105;28;20028;-65
2021/04/16 04:49:52;;;;;;;17.60;8.63;;;;;;;;;;5093013;28;20051;-65
2021/04/16 04:52:29;;;;;;;15.02;7.60;;;;;;;;;;5092727;28;20057;-65
2021/04/16 04:54:56;;;;;;;13.90;9.05;;;;;;;;;;5091801;28;20027;-65
2021/04/16 04:57:24;;;;;;;19.77;10.68;;;;;;;;;;5093029;28;20054;-65
2021/04/16 04:59:50;;;;;;;16.95;7.22;;;;;;;;;;5092539;28;20103;-67
2021/04/16 05:02:17;;;;;;;19.45;10.07;;;;;;;;;;5088147;28;20036;-67
2021/04/16 05:04:44;;;;;;;17.92;8.68;;;;;;;;;;5098866;28;20029;-67
2021/04/16 05:07:10;;;;;;;15.90;9.48;;;;;;;;;;5090789;28;20114;-67
2021/04/16 05:09:37;;;;;;;14.43;7.45;;;;;;;;;;5092676;28;20016;-67
2021/04/16 05:12:03;;;;;;;12.68;8.07;;;;;;;;;;5091351;28;20031;-67
2021/04/16 05:14:29;;;;;;;19.60;8.45;;;;;;;;;;5092476;28;20035;-67
2021/04/16 05:16:56;;;;;;;12.65;7.97;;;;;;;;;;5090168;28;20387;-66
2021/04/16 05:19:23;;;;;;;13.23;8.23;;;;;;;;;;5089087;28;20027;-66
2021/04/16 05:21:55;;;;;;;13.70;7.90;;;;;;;;;;5090297;28;20587;-66
2021/04/16 05:24:21;;;;;;;15.63;8.67;;;;;;;;;;5092178;28;20068;-66
2021/04/16 05:26:47;;;;;;;13.95;7.97;;;;;;;;;;5090811;28;20028;-66
2021/04/16 05:29:14;;;;;;;11.30;6.90;;;;;;;;;;5092395;28;20028;-66
2021/04/16 05:31:40;;;;;;;22.98;10.15;;;;;;;;;;5092334;28;20032;-66
2021/04/16 05:34:06;;;;;;;15.40;8.63;;;;;;;;;;5090863;28;20043;-66
2021/04/16 05:36:32;;;;;;;11.90;7.65;;;;;;;;;;5091185;28;20107;-66
2021/04/16 05:38:59;;;;;;;17.92;10.20;;;;;;;;;;5092359;28;20030;-66
2021/04/16 05:41:25;;;;;;;13.93;8.50;;;;;;;;;;5091996;28;20392;-66
2021/04/16 05:43:51;;;;;;;15.48;9.02;;;;;;;;;;5091091;28;20039;-67
2021/04/16 05:46:17;;;;;;;18.23;9.27;;;;;;;;;;5090365;28;20028;-67
2021/04/16 05:48:44;;;;;;;17.08;8.52;;;;;;;;;;5091792;28;20468;-67
2021/04/16 05:51:10;;;;;;;17.83;8.68;;;;;;;;;;5090283;28;20361;-67
2021/04/16 05:53:37;;;;;;;12.45;7.35;;;;;;;;;;5092314;28;20484;-66
2021/04/16 05:56:04;;;;;;;20.17;9.63;;;;;;;;;;5091994;28;20048;-67
2021/04/16 05:58:30;;;;;;;13.10;7.78;;;;;;;;;;5092196;28;20023;-66
2021/04/16 06:00:56;;;;;;;11.63;7.18;;;;;;;;;;5090624;28;20107;-67
2021/04/16 06:03:22;;;;;;;11.43;6.85;;;;;;;;;;5090161;28;20043;-67
2021/04/16 06:05:48;;;;;;;9.82;6.03;;;;;;;;;;5092079;28;20032;-67
2021/04/16 06:08:18;;;;;;;10.10;6.93;;;;;;;;;;5091519;28;20024;-67
2021/04/16 06:10:45;;;;;;;17.42;8.57;;;;;;;;;;5091513;28;20069;-67
2021/04/16 06:13:11;;;;;;;20.83;10.52;;;;;;;;;;5091710;28;20103;-67
2021/04/16 06:15:38;;;;;;;12.30;6.80;;;;;;;;;;5089522;28;20720;-67
2021/04/16 06:18:06;;;;;;;15.60;8.40;;;;;;;;;;5091819;28;20020;-68
2021/04/16 06:20:32;;;;;;;13.65;7.28;;;;;;;;;;5091805;28;20051;-68
2021/04/16 06:22:59;;;;;;;10.57;6.15;;;;;;;;;;5090855;28;20504;-68
2021/04/16 06:25:28;;;;;;;16.13;8.95;;;;;;;;;;5090577;28;20063;-69
2021/04/16 06:27:55;;;;;;;13.15;6.70;;;;;;;;;;5090614;28;20113;-68
2021/04/16 06:30:21;;;;;;;9.35;5.47;;;;;;;;;;5092647;28;20048;-69
2021/04/16 06:32:59;;;;;;;13.68;6.80;;;;;;;;;;5094345;28;20107;-70
2021/04/16 06:35:26;;;;;;;14.43;7.03;;;;;;;;;;5111366;28;20024;-68
2021/04/16 06:37:53;;;;;;;9.55;6.13;;;;;;;;;;5115489;28;20027;-68
2021/04/16 06:40:19;;;;;;;9.75;4.93;;;;;;;;;;5115841;28;20015;-68
2021/04/16 06:42:46;;;;;;;10.90;5.30;;;;;;;;;;5115638;28;20040;-69
2021/04/16 06:45:14;;;;;;;11.40;6.35;;;;;;;;;;5114072;28;20025;-68
2021/04/16 06:47:43;;;;;;;10.35;5.60;;;;;;;;;;5115439;28;20027;-68
2021/04/16 06:50:13;;;;;;;10.98;6.68;;;;;;;;;;5114215;28;20479;-65
2021/04/16 06:52:42;;;;;;;12.85;7.28;;;;;;;;;;5115287;28;20360;-65
2021/04/16 06:55:13;;;;;;;11.57;5.63;;;;;;;;;;5114826;28;20042;-66
2021/04/16 06:57:58;;;;;;;11.77;6.03;;;;;;;;;;5088238;28;20090;-68
2021/04/16 07:00:33;;;;;;;13.73;5.95;;;;;;;;;;5092211;28;20028;-67
2021/04/16 07:03:12;;;;;;;10.07;5.50;;;;;;;;;;5091896;28;20040;-67
2021/04/16 07:05:45;;;;;;;9.25;5.35;;;;;;;;;;5093938;28;20073;-68
2021/04/16 07:08:21;;;;;;;7.65;4.60;;;;;;;;;;5091464;28;20557;-67
2021/04/16 07:10:51;;;;;;;10.80;5.20;;;;;;;;;;5094874;28;20066;-67
2021/04/16 07:13:23;;;;;;;8.25;4.00;;;;;;;;;;5094341;28;20510;-68
2021/04/16 07:15:49;;;;;;;10.27;4.78;;;;;;;;;;5094814;28;20024;-66
2021/04/16 07:18:29;;;;;;;9.13;4.10;;;;;;;;;;5094537;28;20097;-66
2021/04/16 07:20:55;;;;;;;8.65;3.72;;;;;;;;;;5094398;28;20028;-68
2021/04/16 07:23:22;;;;;;;9.55;4.72;;;;;;;;;;5094330;28;20055;-67
2021/04/16 07:26:02;;;;;;;5.75;3.20;;;;;;;;;;5093902;28;20015;-67
2021/04/16 07:28:44;;;;;;;8.02;3.80;;;;;;;;;;5094555;28;20055;-67
2021/04/16 07:31:29;;;;;;;7.78;3.90;;;;;;;;;;5093719;28;20020;-67
2021/04/16 07:33:56;;;;;;;6.75;3.47;;;;;;;;;;5093801;28;20372;-66
2021/04/16 07:36:26;;;;;;;11.77;5.20;;;;;;;;;;5094428;28;20019;-67
2021/04/16 07:39:01;;;;;;;6.28;3.00;;;;;;;;;;5094237;28;20099;-67
2021/04/16 07:41:29;;;;;;;11.43;3.55;;;;;;;;;;5093788;28;20024;-67
2021/04/16 07:43:57;;;;;;;5.18;3.53;;;;;;;;;;5094079;28;20031;-67
2021/04/16 07:46:23;;;;;;;7.88;3.17;;;;;;;;;;5093880;28;20095;-67
2021/04/16 07:48:49;;;;;;;7.50;3.20;;;;;;;;;;5093378;28;20047;-65
2021/04/16 07:51:27;;;;;;;4.38;2.25;;;;;;;;;;5093420;28;20111;-67
2021/04/16 07:53:53;;;;;;;4.75;2.17;;;;;;;;;;5089990;28;20119;-65
2021/04/16 07:56:23;;;;;;;6.78;2.95;;;;;;;;;;5092891;28;20028;-67
2021/04/16 07:58:49;;;;;;;6.80;3.08;;;;;;;;;;5092339;28;20020;-66
2021/04/16 08:01:17;;;;;;;5.35;2.42;;;;;;;;;;5091183;28;20028;-66
2021/04/16 08:03:44;;;;;;;4.45;2.17;;;;;;;;;;5091777;28;20361;-67
2021/04/16 08:06:24;;;;;;;4.93;2.35;;;;;;;;;;5090803;28;20020;-67
2021/04/16 08:09:33;;;;;;;7.55;2.67;;;;;;;;;;5107293;27;20416;-67
2021/04/16 08:13:29;;;;;;;5.35;2.47;;;;;;;;;;5100642;27;20170;-66
2021/04/16 08:19:47;;;;;;;5.50;2.28;;;;;;;;;;5120879;27;20118;-67
2021/04/16 08:22:37;;;;;;;6.65;2.65;;;;;;;;;;5109656;27;20434;-67
2021/04/16 08:25:37;;;;;;;6.75;2.38;;;;;;;;;;5110098;27;20441;-67
2021/04/16 08:29:55;;;;;;;9.18;3.63;;;;;;;;;;5109206;27;20376;-66
2021/04/16 08:32:30;;;;;;;4.85;2.47;;;;;;;;;;5108018;28;20028;-65
2021/04/16 08:35:01;;;;;;;5.35;2.28;;;;;;;;;;5108019;28;20027;-66
2021/04/16 08:37:32;;;;;;;3.05;2.05;;;;;;;;;;5107759;28;20048;-66
2021/04/16 08:40:47;;;;;;;6.50;2.40;;;;;;;;;;5108100;27;20384;-67
2021/04/16 08:45:54;;;;;;;4.30;2.15;;;;;;;;;;5108798;27;20385;-66
2021/04/16 08:48:41;;;;;;;6.38;2.75;;;;;;;;;;5110368;28;20027;-66
2021/04/16 08:54:15;;;;;;;6.13;3.25;;;;;;;;;;5151565;27;20435;-65
2021/04/16 08:56:56;;;;;;;3.58;1.85;;;;;;;;;;5130615;28;20034;-65
2021/04/16 08:59:23;;;;;;;5.43;2.33;;;;;;;;;;5130226;28;20019;-66
2021/04/16 09:02:06;;;;;;;4.45;2.08;;;;;;;;;;5130530;28;20379;-66
2021/04/16 09:04:32;;;;;;;5.63;3.00;;;;;;;;;;5108130;28;20032;-65
2021/04/16 09:06:59;;;;;;;4.93;2.42;;;;;;;;;;5121894;28;20342;-65
2021/04/16 09:10:24;;;;;;;5.20;2.15;;;;;;;;;;5069391;28;20380;-65
2021/04/16 09:12:52;;;;;;;5.47;2.40;;;;;;;;;;5068608;28;20495;-66
2021/04/16 09:16:18;;;;;;;5.75;2.88;;;;;;;;;;5109835;27;20779;-66
2021/04/16 09:18:48;;;;;;;13.23;3.10;;;;;;;;;;5113572;28;20452;-67
2021/04/16 09:21:17;;;;;;;5.00;2.08;;;;;;;;;;5109488;28;20047;-68
2021/04/16 09:23:47;;;;;;;6.97;3.00;;;;;;;;;;5108381;28;20028;-66
2021/04/16 09:26:33;;;;;;;5.63;2.60;;;;;;;;;;5107549;28;20028;-65
2021/04/16 09:28:59;;;;;;;8.25;3.50;;;;;;;;;;5109802;28;20022;-67
2021/04/16 09:31:26;;;;;;;5.95;2.90;;;;;;;;;;5110041;28;20024;-66
2021/04/16 09:35:19;;;;;;;6.95;3.25;;;;;;;;;;5115833;27;20453;-65
2021/04/16 09:37:53;;;;;;;5.28;2.42;;;;;;;;;;5129263;28;20034;-65
2021/04/16 09:41:21;;;;;;;8.60;2.95;;;;;;;;;;5109820;27;20385;-68
2021/04/16 09:43:51;;;;;;;6.75;3.30;;;;;;;;;;5110167;28;20028;-66
2021/04/16 09:46:40;;;;;;;7.10;2.78;;;;;;;;;;5110048;28;20047;-65
2021/04/16 09:50:25;;;;;;;7.65;3.53;;;;;;;;;;5110054;27;20393;-66
2021/04/16 09:52:54;;;;;;;6.65;2.47;;;;;;;;;;5108025;28;20027;-67
2021/04/16 09:55:39;;;;;;;6.53;3.10;;;;;;;;;;5107854;28;20052;-66
2021/04/16 10:01:05;;;;;;;5.22;2.30;;;;;;;;;;5111689;27;20376;-65
2021/04/16 10:03:46;;;;;;;5.72;2.63;;;;;;;;;;5107473;28;20480;-66
2021/04/16 10:06:45;;;;;;;10.13;3.10;;;;;;;;;;5068039;28;20391;-66
2021/04/16 10:09:49;;;;;;;5.47;2.30;;;;;;;;;;5108543;27;20438;-66
2021/04/16 10:12:48;;;;;;;6.05;2.13;;;;;;;;;;5068206;28;20449;-65
2021/04/16 10:15:16;;;;;;;3.83;1.80;;;;;;;;;;5067398;28;20020;-64
2021/04/16 10:17:52;;;;;;;8.20;2.80;;;;;;;;;;5063064;28;20151;-65
2021/04/16 10:20:19;;;;;;;5.53;2.92;;;;;;;;;;5068444;28;20025;-64
2021/04/16 10:22:45;;;;;;;4.50;2.40;;;;;;;;;;5066106;28;20074;-65
2021/04/16 10:30:30;;;;;;;8.18;2.53;;;;;;;;;;5110006;27;20388;-66
2021/04/16 12:39:18;;;;;;;5.75;2.30;;;;;;;;;;5069661;28;20036;-65
2021/04/16 12:41:48;;;;;;;4.68;2.22;;;;;;;;;;5069697;28;20032;-64
2021/04/16 12:44:34;;;;;;;4.53;2.00;;;;;;;;;;5068260;28;20132;-64
2021/04/16 12:47:02;;;;;;;4.03;2.10;;;;;;;;;;5061326;28;20489;-64
2021/04/16 12:50:52;;;;;;;3.50;1.70;;;;;;;;;;5069597;28;20383;-63
2021/04/16 12:53:19;;;;;;;3.83;1.40;;;;;;;;;;5068858;28;20090;-65
2021/04/16 12:55:45;;;;;;;3.47;1.50;;;;;;;;;;5069683;28;20016;-64
2021/04/16 12:58:17;;;;;;;4.03;1.67;;;;;;;;;;5069363;28;20021;-64
2021/04/16 13:00:44;;;;;;;5.43;1.98;;;;;;;;;;5068386;28;20025;-64
2021/04/16 13:03:14;;;;;;;8.35;2.55;;;;;;;;;;5069731;28;20071;-65
2021/04/16 13:05:41;;;;;;;5.45;2.58;;;;;;;;;;5069598;28;20031;-64
2021/04/16 13:08:07;;;;;;;4.45;1.98;;;;;;;;;;5069202;28;20078;-64
2021/04/16 13:10:34;;;;;;;6.82;2.15;;;;;;;;;;5069026;28;20111;-63
2021/04/16 13:13:01;;;;;;;3.63;1.80;;;;;;;;;;5069388;28;20028;-64
2021/04/16 13:15:41;;;;;;;3.33;1.58;;;;;;;;;;5069996;28;20751;-63
2021/04/16 13:18:15;;;;;;;5.65;1.70;;;;;;;;;;5070163;28;20104;-66
2021/04/16 13:20:43;;;;;;;7.18;1.92;;;;;;;;;;5069882;28;20060;-65
2021/04/16 13:23:09;;;;;;;5.45;1.50;;;;;;;;;;5068321;28;20024;-64
2021/04/16 13:25:35;;;;;;;4.88;2.10;;;;;;;;;;5069314;28;20489;-65
2021/04/16 13:28:01;;;;;;;9.90;2.97;;;;;;;;;;5069686;28;20086;-66
2021/04/16 13:30:29;;;;;;;8.18;2.60;;;;;;;;;;5069546;28;20037;-65
2021/04/16 13:32:57;;;;;;;2.95;1.70;;;;;;;;;;5069084;28;20032;-65
2021/04/16 13:35:31;;;;;;;6.40;2.30;;;;;;;;;;5069380;28;20127;-65
2021/04/16 13:37:57;;;;;;;6.22;1.92;;;;;;;;;;5069540;28;20079;-63
2021/04/16 13:40:23;;;;;;;10.60;6.13;;;;;;;;;;5069009;28;20041;-63
2021/04/16 13:44:54;;;;;;;13.07;6.45;;;;;;;;;;5110571;27;20412;-63
2021/04/16 13:51:48;;;;;;;6.75;2.72;;;;;;;;;;5110360;27;20933;-63
2021/04/16 13:56:14;;;;;;;6.40;3.53;;;;;;;;;;5193589;27;20379;-65
2021/04/16 14:00:09;;;;;;;6.45;2.72;;;;;;;;;;5109795;27;20755;-65
2021/04/16 14:02:38;;;;;;;11.77;6.50;;;;;;;;;;5110445;28;20030;-63
2021/04/16 14:05:05;;;;;;;16.52;8.10;;;;;;;;;;5109089;28;20451;-63
2021/04/16 14:08:34;;;;;;;16.58;6.90;;;;;;;;;;5110212;27;20119;-63
2021/04/16 14:11:02;;;;;;;14.75;8.43;;;;;;;;;;5110475;28;20024;-65
2021/04/16 14:13:29;;;;;;;16.42;8.23;;;;;;;;;;5110488;28;20059;-65
2021/04/16 14:19:45;;;;;;;17.88;8.20;;;;;;;;;;5110396;27;20800;-64
2021/04/16 14:23:04;;;;;;;15.13;7.18;;;;;;;;;;5130605;27;20157;-63
2021/04/16 14:25:33;;;;;;;11.75;5.03;;;;;;;;;;5092346;28;20593;-63
2021/04/16 14:27:59;;;;;;;11.52;4.22;;;;;;;;;;5110044;28;20115;-64
2021/04/16 14:30:30;;;;;;;13.93;7.20;;;;;;;;;;5110342;28;20028;-66
2021/04/16 14:32:57;;;;;;;11.88;5.93;;;;;;;;;;5091966;28;20016;-63
2021/04/16 14:35:25;;;;;;;18.90;9.30;;;;;;;;;;5110005;28;20028;-63
2021/04/16 14:37:51;;;;;;;10.43;4.65;;;;;;;;;;5091699;28;20030;-64
2021/04/16 14:41:05;;;;;;;5.65;2.97;;;;;;;;;;5110369;27;20516;-64
2021/04/16 14:45:33;;;;;;;8.95;4.18;;;;;;;;;;5110524;27;20438;-64
2021/04/16 14:48:10;;;;;;;8.80;3.72;;;;;;;;;;5110416;27;20384;-63
2021/04/16 14:51:23;;;;;;;7.82;2.88;;;;;;;;;;5110319;27;20381;-65
2021/04/16 14:53:52;;;;;;;7.93;2.65;;;;;;;;;;5110213;28;20023;-64
2021/04/16 14:56:19;;;;;;;4.72;2.38;;;;;;;;;;5109876;28;20039;-64
2021/04/16 14:59:01;;;;;;;7.30;3.40;;;;;;;;;;5110108;28;20027;-66
2021/04/16 15:02:35;;;;;;;11.38;5.72;;;;;;;;;;5130849;27;20164;-64
2021/04/16 15:05:43;;;;;;;10.85;6.38;;;;;;;;;;5110606;27;20941;-64
2021/04/16 15:08:13;;;;;;;10.07;4.68;;;;;;;;;;5109349;28;20051;-64
2021/04/16 15:10:49;;;;;;;10.80;5.32;;;;;;;;;;5109877;28;20379;-65
2021/04/16 15:13:18;;;;;;;16.77;5.35;;;;;;;;;;5108973;28;20426;-65
2021/04/16 15:15:48;;;;;;;8.20;3.90;;;;;;;;;;5110131;28;20020;-65
2021/04/16 15:20:23;;;;;;;18.08;9.75;;;;;;;;;;5110378;27;20384;-65
2021/04/16 15:22:49;;;;;;;13.35;6.70;;;;;;;;;;5110315;28;20525;-64
2021/04/16 15:25:16;;;;;;;14.95;10.00;;;;;;;;;;5109994;28;20395;-64
2021/04/16 15:27:50;;;;;;;12.32;7.70;;;;;;;;;;5109174;28;20028;-64
2021/04/16 15:30:27;;;;;;;15.50;8.10;;;;;;;;;;5110152;28;20016;-64
2021/04/16 15:32:54;;;;;;;14.27;7.47;;;;;;;;;;5108361;28;20028;-65
2021/04/16 15:47:13;;;;;;;16.13;7.57;;;;;;;;;;5110157;27;20416;-64
2021/04/16 15:49:39;;;;;;;12.48;6.75;;;;;;;;;;5110364;28;20020;-64
2021/04/16 15:52:05;;;;;;;16.00;7.82;;;;;;;;;;5110207;28;20051;-65
2021/04/16 15:55:25;;;;;;;10.85;5.03;;;;;;;;;;5110267;27;20415;-66
2021/04/16 15:57:53;;;;;;;10.57;5.22;;;;;;;;;;5109023;28;20480;-64
2021/04/16 16:01:27;;;;;;;11.90;5.57;;;;;;;;;;5069326;28;20387;-66
2021/04/16 16:06:44;;;;;;;15.60;6.63;;;;;;;;;;5110068;27;20741;-63
2021/04/16 16:09:11;;;;;;;15.13;6.22;;;;;;;;;;5110531;28;20034;-65
2021/04/16 16:11:42;;;;;;;15.38;7.60;;;;;;;;;;5110200;28;20480;-66
2021/04/16 16:14:10;;;;;;;15.48;7.65;;;;;;;;;;5108422;28;20031;-65
2021/04/16 16:16:39;;;;;;;15.82;7.38;;;;;;;;;;5110053;28;20023;-64
2021/04/16 16:20:27;;;;;;;17.48;7.32;;;;;;;;;;5069176;28;20408;-64
2021/04/16 16:22:54;;;;;;;17.65;9.07;;;;;;;;;;5069737;28;20104;-64
2021/04/16 16:26:51;;;;;;;20.45;9.95;;;;;;;;;;5110559;27;20384;-63
2021/04/16 16:29:21;;;;;;;16.90;9.20;;;;;;;;;;5110102;28;20532;-64
2021/04/16 16:31:48;;;;;;;23.27;11.82;;;;;;;;;;5110611;28;20023;-64
2021/04/16 16:35:42;;;;;;;22.83;13.80;;;;;;;;;;5069325;28;20895;-66
2021/04/16 16:39:29;;;;;;;15.13;8.40;;;;;;;;;;5110280;27;20385;-64
2021/04/16 16:41:55;;;;;;;19.92;8.43;;;;;;;;;;5108640;28;20391;-64
2021/04/16 16:44:24;;;;;;;18.27;9.77;;;;;;;;;;5110304;28;20206;-65
2021/04/16 16:47:28;;;;;;;21.05;11.32;;;;;;;;;;5110680;27;20449;-65
2021/04/16 16:53:20;;;;;;;24.65;11.98;;;;;;;;;;5110433;27;20430;-65
2021/04/16 16:56:42;;;;;;;17.60;10.93;;;;;;;;;;5109979;27;20408;-65
2021/04/16 16:59:09;;;;;;;16.38;10.00;;;;;;;;;;5110325;28;20099;-65
2021/04/16 17:01:35;;;;;;;22.15;14.35;;;;;;;;;;5108908;28;20052;-65
2021/04/16 17:06:33;;;;;;;18.42;10.90;;;;;;;;;;5110607;27;20384;-65
2021/04/16 17:08:59;;;;;;;20.20;12.80;;;;;;;;;;5109179;28;20500;-65
2021/04/16 17:11:27;;;;;;;20.30;12.23;;;;;;;;;;5109931;28;20038;-65
2021/04/16 17:15:55;;;;;;;53.38;28.88;;;;;;;;;;5108125;27;20414;-66
2021/04/16 17:18:21;;;;;;;58.55;32.45;;;;;;;;;;5107875;28;20487;-66
2021/04/16 17:20:59;;;;;;;49.25;27.85;;;;;;;;;;5108303;27;20438;-66
2021/04/16 17:23:25;;;;;;;39.75;22.40;;;;;;;;;;5109798;28;20051;-66
2021/04/16 17:27:00;;;;;;;27.33;17.67;;;;;;;;;;5110510;27;20388;-66
2021/04/16 17:29:29;;;;;;;27.80;17.85;;;;;;;;;;5110292;28;20024;-65
2021/04/16 17:31:56;;;;;;;27.33;15.15;;;;;;;;;;5109847;28;20375;-65
2021/04/16 17:34:22;;;;;;;20.55;13.48;;;;;;;;;;5110333;28;20081;-65
2021/04/16 17:36:49;;;;;;;32.65;20.60;;;;;;;;;;5108835;28;20081;-65
2021/04/16 17:39:16;;;;;;;31.08;20.52;;;;;;;;;;5109721;28;20046;-65
2021/04/16 17:42:42;;;;;;;35.22;22.25;;;;;;;;;;5110338;27;20113;-64
2021/04/16 17:45:10;;;;;;;29.05;18.45;;;;;;;;;;5089824;28;20030;-64
2021/04/16 17:49:03;;;;;;;34.22;18.33;;;;;;;;;;5110345;27;20737;-64
2021/04/16 17:51:30;;;;;;;32.75;16.20;;;;;;;;;;5110218;28;20074;-65
2021/04/16 17:54:52;;;;;;;22.25;12.25;;;;;;;;;;5130898;27;20321;-63
2021/04/16 17:59:04;;;;;;;20.70;10.57;;;;;;;;;;5110070;27;20381;-65
2021/04/16 18:01:30;;;;;;;24.63;10.48;;;;;;;;;;5110658;28;20035;-64
2021/04/16 18:03:56;;;;;;;27.85;14.32;;;;;;;;;;5110457;28;20078;-64
2021/04/16 18:06:40;;;;;;;28.50;18.02;;;;;;;;;;5110320;27;20842;-65
2021/04/16 18:09:07;;;;;;;48.22;24.50;;;;;;;;;;5109125;28;20031;-65
2021/04/16 18:14:39;;;;;;;70.43;31.92;;;;;;;;;;5110067;27;20385;-65
2021/04/16 18:18:42;;;;;;;46.13;25.33;;;;;;;;;;5110516;27;20377;-66
2021/04/16 18:21:13;;;;;;;33.78;20.80;;;;;;;;;;5110045;28;20055;-65
2021/04/16 18:23:45;;;;;;;30.02;17.73;;;;;;;;;;5110407;28;20031;-65